| Date | Time | Temp. (oF) | Dew Point (oF) | Rel. Hum. (%) | Press. (in.) | Wind Dir. | Wind Speed (mph) | Hourly Rainfall (in.) |
|
|---|---|---|---|---|---|---|---|---|---|
| 1 | 05/09 | 00:00 | 49 | 37 | 65 | 29.90 | NNW | 9 | 0.00 |
| 2 | 05/08 | 23:00 | 52 | 38 | 60 | 29.88 | NNW | 8 | 0.00 |
| 3 | 05/08 | 22:00 | 53 | 36 | 53 | 29.85 | WSW | 7 | 0.00 |
| 4 | 05/08 | 21:00 | 55 | 35 | 48 | 29.82 | WNW | 8 | 0.00 |
| 5 | 05/08 | 20:00 | 59 | 35 | 41 | 29.76 | WSW | 7 | 0.00 |
| 6 | 05/08 | 19:00 | 61 | 33 | 36 | 29.73 | W | 34 | 0.00 |
| 7 | 05/08 | 18:00 | 64 | 36 | 36 | 29.69 | WNW | 14 | 0.00 |
| 8 | 05/08 | 17:00 | 66 | 35 | 33 | 29.66 | W | 9 | 0.00 |
| 9 | 05/08 | 16:00 | 68 | 37 | 33 | 29.64 | NW | 8 | 0.00 |
| 10 | 05/08 | 15:00 | 68 | 40 | 37 | 29.62 | W | 7 | 0.00 |
| 11 | 05/08 | 14:00 | 70 | 43 | 39 | 29.60 | NW | 12 | 0.00 |
| 12 | 05/08 | 13:00 | 71 | 47 | 44 | 29.58 | NW | 17 | 0.00 |
| 13 | 05/08 | 12:00 | 71 | 54 | 56 | 29.57 | NW | 19 | 0.00 |
| 14 | 05/08 | 11:00 | 69 | 62 | 80 | 29.56 | SW | 6 | 0.00 |
| 15 | 05/08 | 10:00 | 65 | 62 | 92 | 29.56 | SW | 5 | 0.00 |
| 16 | 05/08 | 09:00 | 64 | 61 | 92 | 29.57 | WSW | 4 | 0.04 |
| 17 | 05/08 | 08:00 | 65 | 57 | 77 | 29.55 | N | 0 | 0.00 |
| 18 | 05/08 | 07:00 | 66 | 58 | 76 | 29.51 | SSW | 0 | 0.00 |
| 19 | 05/08 | 06:00 | 65 | 57 | 76 | 29.50 | WSW | 3 | 0.00 |
| 20 | 05/08 | 05:00 | 64 | 55 | 74 | 29.52 | WSW | 5 | 0.00 |
| 21 | 05/08 | 04:00 | 64 | 54 | 72 | 29.56 | SSW | 9 | 0.00 |
| 22 | 05/08 | 03:00 | 64 | 54 | 72 | 29.59 | WSW | 4 | 0.00 |
| 23 | 05/08 | 02:00 | 64 | 53 | 70 | 29.63 | SSW | 4 | 0.00 |
| 24 | 05/08 | 01:00 | 64 | 52 | 67 | 29.68 | SW | 5 | 0.00 |